createdAt,value
2023-05-05T00:01:43.850Z,99625.47
2023-05-05T00:04:10.461Z,99619.94
2023-05-05T00:06:38.586Z,99621.13
2023-05-05T00:09:05.160Z,99618.50
2023-05-05T00:11:33.102Z,99611.84
2023-05-05T00:13:59.837Z,99615.41
2023-05-05T00:16:26.439Z,99618.81
2023-05-05T00:18:53.057Z,99617.56
2023-05-05T00:21:19.592Z,99609.81
2023-05-05T00:23:46.238Z,99603.63
2023-05-05T00:26:12.999Z,99617.25
2023-05-05T00:28:40.917Z,99609.34
2023-05-05T00:31:07.768Z,99609.16
2023-05-05T00:33:34.401Z,99598.09
2023-05-05T00:36:00.967Z,99603.94
2023-05-05T00:38:27.527Z,99605.59
2023-05-05T00:40:55.132Z,99609.22
2023-05-05T00:43:21.654Z,99611.13
2023-05-05T00:45:58.086Z,99609.03
2023-05-05T00:48:25.257Z,99614.41
2023-05-05T00:50:52.059Z,99613.28
2023-05-05T00:53:18.938Z,99616.59
2023-05-05T00:55:45.539Z,99618.19
2023-05-05T00:58:12.233Z,99624.97
2023-05-05T01:00:38.815Z,99623.38
2023-05-05T01:03:06.793Z,99617.25
2023-05-05T01:05:47.216Z,99617.34
2023-05-05T01:08:29.102Z,99614.00
2023-05-05T01:11:03.000Z,99602.91
2023-05-05T01:13:42.683Z,99612.19
2023-05-05T01:16:15.049Z,99599.34
2023-05-05T01:18:51.606Z,99608.66
2023-05-05T01:21:22.567Z,99607.00
2023-05-05T01:24:22.149Z,99615.41
2023-05-05T01:26:58.200Z,99616.59
2023-05-05T01:29:41.262Z,99625.31
2023-05-05T01:32:11.733Z,99623.31
2023-05-05T01:34:44.409Z,99633.81
2023-05-05T01:37:24.466Z,99630.50
2023-05-05T01:39:55.410Z,99620.97
2023-05-05T01:42:23.957Z,99627.97
2023-05-05T01:44:52.737Z,99626.41
2023-05-05T01:47:22.793Z,99629.56
2023-05-05T01:49:53.503Z,99633.19
2023-05-05T01:52:21.957Z,99630.03
2023-05-05T01:54:50.508Z,99634.88
2023-05-05T01:57:18.760Z,99636.34
2023-05-05T01:59:45.374Z,99637.50
2023-05-05T02:02:13.383Z,99635.78
2023-05-05T02:04:44.362Z,99633.91
2023-05-05T02:07:13.209Z,99632.13
2023-05-05T02:09:42.410Z,99631.53
2023-05-05T02:12:10.849Z,99639.94
2023-05-05T02:14:38.902Z,99628.03
2023-05-05T02:17:05.334Z,99635.59
2023-05-05T02:19:38.327Z,99640.94
2023-05-05T02:22:06.314Z,99651.09
2023-05-05T02:24:33.024Z,99645.91
2023-05-05T02:27:02.711Z,99655.91
2023-05-05T02:29:34.276Z,99654.03
2023-05-05T02:32:05.026Z,99651.88
2023-05-05T02:34:36.627Z,99664.34
2023-05-05T02:37:09.690Z,99670.72
2023-05-05T02:39:41.208Z,99678.16
2023-05-05T02:42:10.632Z,99677.50
2023-05-05T02:44:41.132Z,99681.88
2023-05-05T02:47:08.387Z,99675.22
2023-05-05T02:49:36.215Z,99680.88
2023-05-05T02:52:03.084Z,99683.63
2023-05-05T02:54:31.730Z,99687.09
2023-05-05T02:56:59.388Z,99678.53
2023-05-05T02:59:33.385Z,99681.75
2023-05-05T03:02:08.078Z,99677.84
2023-05-05T03:04:39.864Z,99672.47
2023-05-05T03:07:12.121Z,99677.22
2023-05-05T03:09:46.576Z,99674.06
2023-05-05T03:12:18.416Z,99675.50
2023-05-05T03:14:46.954Z,99663.47
2023-05-05T03:17:17.345Z,99668.44
2023-05-05T03:19:44.647Z,99677.09
2023-05-05T03:22:12.630Z,99674.03
2023-05-05T03:24:39.169Z,99680.72
2023-05-05T03:27:07.507Z,99672.00
2023-05-05T03:29:34.082Z,99676.69
2023-05-05T03:32:00.665Z,99678.16
2023-05-05T03:34:27.311Z,99682.63
2023-05-05T03:36:53.868Z,99677.25
2023-05-05T03:39:20.557Z,99681.00
2023-05-05T03:41:47.135Z,99679.72
2023-05-05T03:44:15.166Z,99680.56
2023-05-05T03:46:41.764Z,99683.19
2023-05-05T03:49:08.341Z,99673.91
2023-05-05T03:51:35.036Z,99680.56
2023-05-05T03:54:01.577Z,99679.69
2023-05-05T03:56:28.154Z,99676.63
2023-05-05T03:58:55.091Z,99672.91
2023-05-05T04:01:22.967Z,99680.97
2023-05-05T04:03:49.758Z,99682.88
2023-05-05T04:06:16.353Z,99679.97
2023-05-05T04:08:43.030Z,99674.91
2023-05-05T04:11:09.713Z,99683.75
2023-05-05T04:13:36.243Z,99676.06
2023-05-05T04:16:03.141Z,99680.88
2023-05-05T04:18:31.048Z,99681.88
2023-05-05T04:20:57.718Z,99682.63
2023-05-05T04:23:24.317Z,99698.09
2023-05-05T04:25:50.882Z,99695.47
2023-05-05T04:28:19.089Z,99698.19
2023-05-05T04:30:47.612Z,99706.28
2023-05-05T04:33:14.177Z,99705.56
2023-05-05T04:35:42.161Z,99714.19
2023-05-05T04:38:08.735Z,99716.13
2023-05-05T04:40:38.612Z,99718.19
2023-05-05T04:43:05.138Z,99720.53
2023-05-05T04:45:31.809Z,99721.09
2023-05-05T04:47:58.424Z,99724.25
2023-05-05T04:50:24.955Z,99723.50
2023-05-05T04:52:53.058Z,99724.81
2023-05-05T04:55:21.708Z,99727.25
2023-05-05T04:57:48.264Z,99730.97
2023-05-05T05:00:15.395Z,99730.19
2023-05-05T05:02:42.004Z,99729.88
2023-05-05T05:05:09.590Z,99731.94
2023-05-05T05:07:36.171Z,99727.28
2023-05-05T05:10:04.725Z,99730.44
2023-05-05T05:12:31.356Z,99729.16
2023-05-05T05:14:57.887Z,99739.06
2023-05-05T05:17:24.506Z,99734.13
2023-05-05T05:19:51.083Z,99732.47
2023-05-05T05:22:17.656Z,99733.72
2023-05-05T05:24:44.260Z,99729.94
2023-05-05T05:27:12.277Z,99741.59
2023-05-05T05:29:39.446Z,99747.72
2023-05-05T05:32:06.153Z,99749.00
2023-05-05T05:34:32.696Z,99754.34
2023-05-05T05:36:59.352Z,99749.88
2023-05-05T05:39:25.847Z,99761.66
2023-05-05T05:41:52.358Z,99747.81
2023-05-05T05:44:20.378Z,99754.59
2023-05-05T05:46:46.966Z,99752.00
2023-05-05T05:49:13.495Z,99753.16
2023-05-05T05:51:40.006Z,99744.47
2023-05-05T05:54:06.529Z,99741.00
2023-05-05T05:56:33.172Z,99747.41
2023-05-05T05:58:59.762Z,99747.25
2023-05-05T06:01:27.662Z,99752.00
2023-05-05T06:03:54.253Z,99746.41
2023-05-05T06:06:20.804Z,99750.25
2023-05-05T06:08:47.331Z,99744.28
2023-05-05T06:11:13.821Z,99751.69
2023-05-05T06:13:40.382Z,99744.47
2023-05-05T06:16:07.807Z,99755.28
2023-05-05T06:18:35.852Z,99749.81
2023-05-05T06:21:02.588Z,99742.72
2023-05-05T06:23:29.172Z,99750.03
2023-05-05T06:25:55.957Z,99747.25
2023-05-05T06:28:22.614Z,99748.69
2023-05-05T06:30:49.755Z,99752.13
2023-05-05T06:33:16.334Z,99752.16
2023-05-05T06:35:44.240Z,99743.59
2023-05-05T06:38:11.226Z,99744.00
2023-05-05T06:40:37.791Z,99741.19
2023-05-05T06:43:04.731Z,99739.84
2023-05-05T06:45:31.633Z,99744.78
2023-05-05T06:47:58.264Z,99745.97
2023-05-05T06:50:24.894Z,99740.75
2023-05-05T06:52:52.819Z,99754.38
2023-05-05T06:55:19.502Z,99751.78
2023-05-05T06:57:46.320Z,99758.81
2023-05-05T07:00:14.218Z,99763.59
2023-05-05T07:02:41.025Z,99754.78
2023-05-05T07:05:08.143Z,99765.72
2023-05-05T07:07:35.102Z,99765.13
2023-05-05T07:10:03.104Z,99777.34
2023-05-05T07:12:30.517Z,99775.13
2023-05-05T07:14:57.144Z,99785.47
2023-05-05T07:17:23.836Z,99783.91
2023-05-05T07:19:52.509Z,99786.25
2023-05-05T07:22:19.115Z,99786.13
2023-05-05T07:24:45.698Z,99789.63
2023-05-05T07:27:14.045Z,99798.38
2023-05-05T07:29:41.088Z,99789.56
2023-05-05T07:32:07.887Z,99800.31
2023-05-05T07:34:34.596Z,99789.03
2023-05-05T07:37:01.393Z,99791.59
2023-05-05T07:39:28.126Z,99790.50
2023-05-05T07:41:54.797Z,99800.50
2023-05-05T07:44:22.788Z,99803.03
2023-05-05T07:46:49.718Z,99796.81
2023-05-05T07:49:16.176Z,99800.56
2023-05-05T07:51:42.968Z,99803.09
2023-05-05T07:54:09.613Z,99802.84
2023-05-05T07:56:36.220Z,99797.44
2023-05-05T07:59:03.217Z,99801.22
2023-05-05T08:01:31.178Z,99799.75
2023-05-05T08:03:57.878Z,99800.78
2023-05-05T08:06:24.518Z,99792.97
2023-05-05T08:08:51.559Z,99800.13
2023-05-05T08:11:18.101Z,99800.53
2023-05-05T08:13:44.800Z,99802.22
2023-05-05T08:16:11.865Z,99803.75
2023-05-05T08:18:39.843Z,99800.19
2023-05-05T08:21:07.334Z,99800.25
2023-05-05T08:23:34.550Z,99801.66
2023-05-05T08:26:01.238Z,99800.16
2023-05-05T08:28:28.018Z,99798.84
2023-05-05T08:30:55.064Z,99803.97
2023-05-05T08:33:24.149Z,99801.88
2023-05-05T08:35:52.216Z,99812.03
2023-05-05T08:38:18.810Z,99812.22
2023-05-05T08:40:46.691Z,99813.78
2023-05-05T08:43:13.570Z,99811.63
2023-05-05T08:45:41.346Z,99814.34
2023-05-05T08:48:09.041Z,99800.38
2023-05-05T08:50:36.440Z,99802.38
2023-05-05T08:53:09.473Z,99799.97
2023-05-05T08:55:41.225Z,99806.00
2023-05-05T08:58:09.457Z,99803.66
2023-05-05T09:00:36.570Z,99799.69
2023-05-05T09:03:04.770Z,99797.63
2023-05-05T09:05:31.619Z,99809.41
2023-05-05T09:07:58.978Z,99810.75
2023-05-05T09:10:30.978Z,99812.03
2023-05-05T09:12:57.785Z,99814.44
2023-05-05T09:15:24.721Z,99809.88
2023-05-05T09:17:51.486Z,99812.25
2023-05-05T09:20:18.216Z,99810.56
2023-05-05T09:22:46.305Z,99820.00
2023-05-05T09:25:14.352Z,99820.91
2023-05-05T09:27:44.341Z,99813.53
2023-05-05T09:30:14.184Z,99813.31
2023-05-05T09:32:45.857Z,99823.25
2023-05-05T09:35:12.697Z,99814.16
2023-05-05T09:37:39.674Z,99809.84
2023-05-05T09:40:07.439Z,99821.94
2023-05-05T09:42:35.489Z,99822.19
2023-05-05T09:45:04.006Z,99826.41
2023-05-05T09:47:35.039Z,99821.78
2023-05-05T09:50:02.325Z,99827.28
2023-05-05T09:52:29.025Z,99820.94
2023-05-05T09:54:56.604Z,99819.06
2023-05-05T09:57:27.723Z,99816.47
2023-05-05T09:59:59.326Z,99824.81
2023-05-05T10:02:35.692Z,99818.75
2023-05-05T10:05:05.638Z,99810.69
2023-05-05T10:07:32.639Z,99808.59
2023-05-05T10:09:59.195Z,99807.28
2023-05-05T10:12:27.009Z,99798.50
2023-05-05T10:14:55.888Z,99790.53
2023-05-05T10:17:23.536Z,99782.13
2023-05-05T10:19:56.294Z,99784.44
2023-05-05T10:22:23.616Z,99790.78
2023-05-05T10:24:56.723Z,99777.13
2023-05-05T10:27:26.236Z,99783.34
2023-05-05T10:29:57.485Z,99773.59
2023-05-05T10:32:51.999Z,99774.09
2023-05-05T10:35:20.710Z,99767.72
2023-05-05T10:37:48.369Z,99761.59
2023-05-05T10:40:15.597Z,99759.19
2023-05-05T10:42:42.385Z,99765.25
2023-05-05T10:45:10.026Z,99755.88
2023-05-05T10:47:38.295Z,99759.91
2023-05-05T10:50:12.537Z,99750.50
2023-05-05T10:52:47.777Z,99753.28
2023-05-05T10:55:17.854Z,99755.38
2023-05-05T10:57:45.784Z,99756.97
2023-05-05T11:00:46.121Z,99757.78
2023-05-05T11:03:23.077Z,99755.81
2023-05-05T11:06:08.742Z,99742.00
2023-05-05T11:08:37.586Z,99748.66
2023-05-05T11:11:05.788Z,99744.81
2023-05-05T11:13:32.677Z,99739.63
2023-05-05T11:16:00.325Z,99743.38
2023-05-05T11:18:37.538Z,99741.41
2023-05-05T11:21:09.519Z,99742.03
2023-05-05T11:23:37.536Z,99740.78
2023-05-05T11:26:04.264Z,99745.41
2023-05-05T11:28:31.561Z,99740.66
2023-05-05T11:31:17.900Z,99749.44
2023-05-05T11:33:44.832Z,99753.31
2023-05-05T11:36:13.061Z,99753.94
2023-05-05T11:39:18.398Z,99775.56
2023-05-05T11:42:16.644Z,99775.28
2023-05-05T11:44:43.265Z,99772.03
2023-05-05T11:47:31.978Z,99767.16
2023-05-05T11:49:59.215Z,99767.00
2023-05-05T11:52:26.483Z,99760.59
2023-05-05T11:55:00.227Z,99760.78
2023-05-05T11:57:30.454Z,99767.19
2023-05-05T11:59:59.404Z,99776.34
2023-05-05T12:02:30.813Z,99801.34
2023-05-05T12:05:01.203Z,99823.81
2023-05-05T12:07:30.324Z,99815.69
2023-05-05T12:09:58.843Z,99806.44
2023-05-05T12:12:36.290Z,99807.88
2023-05-05T12:15:04.371Z,99809.06
2023-05-05T12:17:41.506Z,99804.97
2023-05-05T12:20:10.005Z,99804.16
2023-05-05T12:22:37.498Z,99810.03
2023-05-05T12:25:07.307Z,99802.19
2023-05-05T12:27:34.104Z,99787.66
2023-05-05T12:30:12.361Z,99769.66
2023-05-05T12:32:39.131Z,99783.72
2023-05-05T12:35:07.319Z,99789.31
2023-05-05T12:37:34.440Z,99787.50
2023-05-05T12:40:01.070Z,99779.44
2023-05-05T12:42:29.125Z,99775.56
2023-05-05T12:44:55.712Z,99773.47
2023-05-05T12:47:32.606Z,99770.00
2023-05-05T12:49:59.832Z,99774.91
2023-05-05T12:52:41.089Z,99757.44
2023-05-05T12:55:11.019Z,99758.16
2023-05-05T12:57:39.504Z,99754.69
2023-05-05T13:00:14.382Z,99758.78
2023-05-05T13:02:45.053Z,99748.69
2023-05-05T13:05:11.697Z,99738.03
2023-05-05T13:07:50.206Z,99738.81
2023-05-05T13:10:16.773Z,99735.97
2023-05-05T13:12:44.752Z,99730.56
2023-05-05T13:15:12.799Z,99740.63
2023-05-05T13:17:39.383Z,99745.72
2023-05-05T13:20:07.724Z,99751.47
2023-05-05T13:22:34.776Z,99738.69
2023-05-05T13:25:01.304Z,99743.13
2023-05-05T13:27:28.032Z,99746.94
2023-05-05T13:29:55.958Z,99744.38
2023-05-05T13:32:22.588Z,99741.03
2023-05-05T13:34:49.206Z,99736.13
2023-05-05T13:37:15.780Z,99732.06
2023-05-05T13:39:42.672Z,99738.88
2023-05-05T13:42:09.257Z,99741.66
2023-05-05T13:44:35.860Z,99740.53
2023-05-05T13:47:03.955Z,99736.47
2023-05-05T13:49:30.765Z,99730.44
2023-05-05T13:51:57.330Z,99728.19
2023-05-05T13:54:24.105Z,99727.25
2023-05-05T13:56:50.832Z,99725.81
2023-05-05T13:59:17.399Z,99724.03
2023-05-05T14:01:44.045Z,99726.13
2023-05-05T14:04:12.048Z,99724.31
2023-05-05T14:06:38.628Z,99716.03
2023-05-05T14:09:05.263Z,99724.00
2023-05-05T14:11:31.808Z,99720.66
2023-05-05T14:13:58.428Z,99715.44
2023-05-05T14:16:25.051Z,99721.16
2023-05-05T14:18:52.249Z,99716.22
2023-05-05T14:21:20.171Z,99711.66
2023-05-05T14:23:46.743Z,99709.00
2023-05-05T14:26:13.349Z,99716.13
2023-05-05T14:28:39.909Z,99707.22
2023-05-05T14:31:06.575Z,99703.84
2023-05-05T14:33:33.281Z,99696.50
2023-05-05T14:35:59.981Z,99697.06
2023-05-05T14:38:27.921Z,99696.78
2023-05-05T14:40:54.734Z,99707.63
2023-05-05T14:43:21.339Z,99705.22
2023-05-05T14:45:47.982Z,99701.97
2023-05-05T14:48:14.576Z,99700.41
2023-05-05T14:50:41.238Z,99707.78
2023-05-05T14:53:08.173Z,99708.59
2023-05-05T14:55:36.067Z,99710.25
2023-05-05T14:58:02.651Z,99709.59
2023-05-05T15:00:29.254Z,99709.50
2023-05-05T15:02:56.159Z,99711.50
2023-05-05T15:05:22.911Z,99718.47
2023-05-05T15:07:49.462Z,99723.84
2023-05-05T15:10:16.146Z,99731.56
2023-05-05T15:12:44.119Z,99767.19
2023-05-05T15:15:11.468Z,99774.28
2023-05-05T15:17:38.232Z,99795.06
2023-05-05T15:20:06.554Z,99800.63
2023-05-05T15:22:33.640Z,99796.50
2023-05-05T15:25:00.285Z,99797.44
2023-05-05T15:27:27.031Z,99801.66
2023-05-05T15:29:55.009Z,99798.00
2023-05-05T15:32:21.595Z,99788.53
2023-05-05T15:34:50.199Z,99795.13
2023-05-05T15:37:17.156Z,99794.50
2023-05-05T15:39:43.790Z,99797.38
2023-05-05T15:42:10.394Z,99810.31
2023-05-05T15:44:36.954Z,99812.28
2023-05-05T15:47:05.140Z,99822.28
2023-05-05T15:49:31.900Z,99816.22
2023-05-05T15:51:58.709Z,99821.41
2023-05-05T15:54:25.328Z,99826.91
2023-05-05T15:56:51.904Z,99814.50
2023-05-05T15:59:19.249Z,99810.06
2023-05-05T16:01:46.104Z,99810.09
2023-05-05T16:04:14.232Z,99803.88
2023-05-05T16:06:40.868Z,99809.34
2023-05-05T16:09:07.559Z,99802.41
2023-05-05T16:11:34.370Z,99802.81
2023-05-05T16:14:01.011Z,99798.91
2023-05-05T16:16:27.574Z,99787.59
2023-05-05T16:18:54.267Z,99790.59
2023-05-05T16:21:22.399Z,99794.50
2023-05-05T16:23:49.067Z,99784.50
2023-05-05T16:26:16.364Z,99785.38
2023-05-05T16:28:42.990Z,99777.84
2023-05-05T16:31:09.604Z,99776.59
2023-05-05T16:33:36.309Z,99777.00
2023-05-05T16:36:02.968Z,99780.56
2023-05-05T16:38:30.867Z,99781.47
2023-05-05T16:40:57.611Z,99792.69
2023-05-05T16:43:24.181Z,99779.28
2023-05-05T16:45:50.871Z,99773.69
2023-05-05T16:48:17.534Z,99780.78
2023-05-05T16:50:44.086Z,99778.91
2023-05-05T16:53:10.718Z,99774.81
2023-05-05T16:55:38.629Z,99791.47
2023-05-05T16:58:05.369Z,99790.53
2023-05-05T17:00:31.950Z,99791.75
2023-05-05T17:02:58.584Z,99787.69
2023-05-05T17:05:25.310Z,99789.00
2023-05-05T17:07:51.900Z,99781.97
2023-05-05T17:10:18.444Z,99788.13
2023-05-05T17:12:46.433Z,99780.38
2023-05-05T17:15:13.057Z,99782.88
2023-05-05T17:17:41.534Z,99779.72
2023-05-05T17:20:10.712Z,99785.56
2023-05-05T17:22:37.301Z,99770.63
2023-05-05T17:25:04.398Z,99782.25
2023-05-05T17:27:32.054Z,99784.84
2023-05-05T17:30:00.044Z,99787.56
2023-05-05T17:32:26.810Z,99784.66
2023-05-05T17:34:53.618Z,99781.31
2023-05-05T17:37:20.319Z,99780.00
2023-05-05T17:39:47.212Z,99768.06
2023-05-05T17:42:14.067Z,99774.28
2023-05-05T17:44:40.699Z,99781.56
2023-05-05T17:47:08.770Z,99786.50
2023-05-05T17:49:35.436Z,99788.81
2023-05-05T17:52:02.074Z,99784.75
2023-05-05T17:54:28.934Z,99791.94
2023-05-05T17:56:55.480Z,99794.00
2023-05-05T17:59:22.042Z,99801.56
2023-05-05T18:01:48.725Z,99798.22
2023-05-05T18:04:16.755Z,99798.00
2023-05-05T18:06:45.992Z,99809.91
2023-05-05T18:09:12.741Z,99807.03
2023-05-05T18:11:41.661Z,99815.75
2023-05-05T18:14:08.345Z,99815.03
2023-05-05T18:16:34.903Z,99818.25
2023-05-05T18:19:01.574Z,99814.19
2023-05-05T18:21:29.513Z,99813.78
2023-05-05T18:24:01.698Z,99817.22
2023-05-05T18:26:34.675Z,99813.81
2023-05-05T18:29:01.263Z,99812.59
2023-05-05T18:31:27.969Z,99821.41
2023-05-05T18:33:54.972Z,99822.72
2023-05-05T18:36:21.560Z,99821.00
2023-05-05T18:38:49.624Z,99826.22
2023-05-05T18:41:16.331Z,99829.09
2023-05-05T18:43:42.914Z,99821.69
2023-05-05T18:46:09.463Z,99824.06
2023-05-05T18:48:36.377Z,99822.78
2023-05-05T18:51:03.453Z,99816.69
2023-05-05T18:53:30.475Z,99808.44
2023-05-05T18:55:58.848Z,99808.06
2023-05-05T18:58:25.572Z,99811.25
2023-05-05T19:00:52.325Z,99811.72
2023-05-05T19:03:19.966Z,99806.78
2023-05-05T19:05:46.523Z,99804.41
2023-05-05T19:08:13.109Z,99796.16
2023-05-05T19:10:39.863Z,99804.50
2023-05-05T19:13:08.953Z,99803.63
2023-05-05T19:15:35.546Z,99802.03
2023-05-05T19:18:02.130Z,99800.78
2023-05-05T19:20:28.953Z,99804.41
2023-05-05T19:22:55.544Z,99807.41
2023-05-05T19:25:22.133Z,99821.56
2023-05-05T19:27:48.968Z,99819.97
2023-05-05T19:30:16.970Z,99827.66
2023-05-05T19:32:43.551Z,99829.59
2023-05-05T19:35:10.560Z,99838.66
2023-05-05T19:37:37.405Z,99837.44
2023-05-05T19:40:05.282Z,99845.59
2023-05-05T19:42:32.099Z,99841.28
2023-05-05T19:44:58.680Z,99849.31
2023-05-05T19:47:26.633Z,99849.97
2023-05-05T19:49:53.265Z,99844.38
2023-05-05T19:52:19.818Z,99845.53
2023-05-05T19:54:46.655Z,99849.69
2023-05-05T19:57:13.376Z,99851.31
2023-05-05T19:59:39.977Z,99850.31
2023-05-05T20:02:06.635Z,99847.81
2023-05-05T20:04:34.628Z,99849.31
2023-05-05T20:07:01.255Z,99842.59
2023-05-05T20:09:27.853Z,99836.88
2023-05-05T20:11:55.958Z,99840.13
2023-05-05T20:14:22.527Z,99827.19
2023-05-05T20:16:49.159Z,99832.78
2023-05-05T20:19:15.835Z,99832.06
2023-05-05T20:21:43.771Z,99832.66
2023-05-05T20:24:10.331Z,99838.91
2023-05-05T20:26:36.953Z,99836.66
2023-05-05T20:29:03.511Z,99836.94
2023-05-05T20:31:30.236Z,99837.53
2023-05-05T20:33:56.964Z,99845.16
2023-05-05T20:36:23.491Z,99834.31
2023-05-05T20:38:51.471Z,99838.91
2023-05-05T20:41:18.085Z,99841.53
2023-05-05T20:43:44.831Z,99836.44
2023-05-05T20:46:13.070Z,99830.94
2023-05-05T20:48:42.386Z,99831.44
2023-05-05T20:51:11.823Z,99837.53
2023-05-05T20:53:38.629Z,99851.22
2023-05-05T20:56:08.678Z,99848.22
2023-05-05T20:58:35.819Z,99839.66
2023-05-05T21:01:02.465Z,99844.50
2023-05-05T21:03:29.066Z,99848.59
2023-05-05T21:05:55.744Z,99843.13
2023-05-05T21:08:22.378Z,99845.09
2023-05-05T21:10:48.969Z,99842.38
2023-05-05T21:13:16.887Z,99846.88
2023-05-05T21:15:43.497Z,99845.09
2023-05-05T21:18:10.056Z,99848.97
2023-05-05T21:20:36.589Z,99837.91
2023-05-05T21:23:03.777Z,99845.88
2023-05-05T21:25:30.593Z,99842.38
2023-05-05T21:27:57.149Z,99841.41
2023-05-05T21:30:25.204Z,99833.19
2023-05-05T21:32:52.027Z,99839.28
2023-05-05T21:35:18.773Z,99833.56
2023-05-05T21:37:45.394Z,99840.00
2023-05-05T21:40:12.757Z,99833.66
2023-05-05T21:42:42.178Z,99842.63
2023-05-05T21:45:10.081Z,99838.91
2023-05-05T21:47:38.042Z,99841.00
2023-05-05T21:50:05.205Z,99850.22
2023-05-05T21:52:31.801Z,99847.59
2023-05-05T21:54:58.381Z,99838.66
2023-05-05T21:57:25.012Z,99840.66
2023-05-05T21:59:52.023Z,99837.91
2023-05-05T22:02:18.661Z,99838.16
2023-05-05T22:04:46.596Z,99839.91
2023-05-05T22:07:13.243Z,99843.50
2023-05-05T22:09:39.819Z,99843.13
2023-05-05T22:12:06.540Z,99842.13
2023-05-05T22:14:33.123Z,99848.88
2023-05-05T22:16:59.689Z,99840.66
2023-05-05T22:19:26.338Z,99832.44
2023-05-05T22:21:54.266Z,99844.91
2023-05-05T22:24:20.947Z,99842.63
2023-05-05T22:26:47.509Z,99845.34
2023-05-05T22:29:14.078Z,99845.22
2023-05-05T22:31:40.795Z,99842.75
2023-05-05T22:34:07.797Z,99852.28
2023-05-05T22:36:36.029Z,99854.41
2023-05-05T22:39:38.981Z,99847.44
2023-05-05T22:42:28.766Z,99849.94
2023-05-05T22:44:56.485Z,99852.00
2023-05-05T22:47:23.108Z,99846.94
2023-05-05T22:52:36.155Z,99851.28
2023-05-05T22:55:04.900Z,99850.28
2023-05-05T22:57:31.462Z,99846.66
2023-05-05T22:59:58.112Z,99843.81
2023-05-05T23:02:26.349Z,99836.84
2023-05-05T23:04:53.171Z,99840.09
2023-05-05T23:07:20.802Z,99834.13
2023-05-05T23:09:47.860Z,99830.63
2023-05-05T23:12:15.793Z,99838.63
2023-05-05T23:14:42.384Z,99840.00
2023-05-05T23:17:09.441Z,99847.13
2023-05-05T23:19:36.794Z,99831.56
2023-05-05T23:22:04.599Z,99827.69
2023-05-05T23:24:31.192Z,99836.78
2023-05-05T23:26:59.272Z,99844.38
2023-05-05T23:29:27.360Z,99834.53
2023-05-05T23:31:53.959Z,99843.63
2023-05-05T23:34:20.581Z,99841.25
2023-05-05T23:36:47.724Z,99848.59
2023-05-05T23:39:14.457Z,99855.69
2023-05-05T23:41:40.999Z,99852.59
2023-05-05T23:44:07.602Z,99853.59
2023-05-05T23:46:35.681Z,99854.44
2023-05-05T23:49:02.311Z,99853.47
2023-05-05T23:51:29.020Z,99847.50
2023-05-05T23:53:56.859Z,99845.88
2023-05-05T23:56:23.571Z,99843.88
2023-05-05T23:58:50.214Z,99845.75
